Montego Bay, Jamaica
Current Conditions -  °F | °C
As of 3:00 PM on Friday 28 Nov 2014 (Local Time) from MKJS Reporting Station
Broken Clouds Broken Clouds  
Wind Chill: 79°   Ceiling: 1400
Heat Index: 83°   Visibility: 6mi
Dew Point: 77°   Wind: 8mph
Humidity: 94%   Direction: 50°NE
Pressure: 29.91"   Gusts: NA
Location:  18.47°N, 77.92°W
Report Text: MKJS 282000Z 05007KT 9999 BKN014 FEW016CB 26/25 Q1013
Loading
Personal Weather Stations






























Interactive Weather Map New forecast layout! Learn more

10-Day Weather Forecast

Advertisements
Track Severe Weather on mobile